Strona główna
METAR-TAF:

METAR-TAF

Lotnisko :

Port Meadville Airport

Meadville, Pensylwania, Stany Zjednoczone

Szerokość geograficzna: 41-37-35N, Długość geograficzna: 080-12-53W, wysokość: 427 m

Aktualna obserwacja pogody

Raport powstał 29 minut temu, godzina 19:53 UTC
Wiatr 5 kt z kierunków zmiennych
Temperatura 28°C
Wilgotność 66%
Ciśnienie 1015 hPa
Widzialność: 16.1 km
Mało chmury na wysokości 3400 ft
Rozproszone chmury na wysokości 4900 ft

METAR: KGKJ 181953Z AUTO VRB05KT 10SM FEW034 SCT049 28/21 A2997 RMK AO2 SLP137 T02830206 TSNO

czas: 16:22 (20:22 UTC)


TAF: brakujący

Obserwacja i prognoza pogody dla ponad 4000 lotnisk (raport METAR i TAF).

Dostępne stacje oznaczono żółtymi i czerwonymi punktami na mapie.

Najedź kursorem aby zobaczyć nazwę stacji.

Kliknij aby zobaczyć obserwacje i prognozy pogody.

Aby zmienić mapę: kliknij na zielony przycisk z czarnym krzyżykiem, aby powiększyć; na zielony przycisk z myślnikiem, aby pomniejszyć; na zielone strzałki, aby przejść do map sąsiednich.


METAR-TAF: